sensor_id;sensor_type;location;lat;lon;timestamp;P1;durP1;ratioP1;P2;durP2;ratioP2
17361;SDS011;8798;51.938;4.348;2022-07-23T00:00:55;4.27;;;1.57;;
17361;SDS011;8798;51.938;4.348;2022-07-23T00:03:23;3.37;;;1.40;;
17361;SDS011;8798;51.938;4.348;2022-07-23T00:05:51;3.93;;;1.40;;
17361;SDS011;8798;51.938;4.348;2022-07-23T00:08:19;2.13;;;1.23;;
17361;SDS011;8798;51.938;4.348;2022-07-23T00:10:47;4.33;;;1.20;;
17361;SDS011;8798;51.938;4.348;2022-07-23T00:13:16;4.47;;;1.47;;
17361;SDS011;8798;51.938;4.348;2022-07-23T00:15:44;2.20;;;1.13;;
17361;SDS011;8798;51.938;4.348;2022-07-23T00:18:11;2.20;;;1.20;;
17361;SDS011;8798;51.938;4.348;2022-07-23T00:20:39;2.13;;;1.10;;
17361;SDS011;8798;51.938;4.348;2022-07-23T00:23:07;2.40;;;1.30;;
17361;SDS011;8798;51.938;4.348;2022-07-23T00:25:35;4.67;;;1.83;;
17361;SDS011;8798;51.938;4.348;2022-07-23T00:28:03;3.83;;;1.20;;
17361;SDS011;8798;51.938;4.348;2022-07-23T00:30:32;4.70;;;1.20;;
17361;SDS011;8798;51.938;4.348;2022-07-23T00:33:01;2.70;;;1.30;;
17361;SDS011;8798;51.938;4.348;2022-07-23T00:35:31;2.13;;;1.23;;
17361;SDS011;8798;51.938;4.348;2022-07-23T00:38:01;3.20;;;1.33;;
17361;SDS011;8798;51.938;4.348;2022-07-23T00:40:32;4.47;;;1.30;;
17361;SDS011;8798;51.938;4.348;2022-07-23T00:43:01;3.27;;;1.40;;
17361;SDS011;8798;51.938;4.348;2022-07-23T00:45:29;2.17;;;1.40;;
17361;SDS011;8798;51.938;4.348;2022-07-23T00:47:59;4.07;;;1.50;;
17361;SDS011;8798;51.938;4.348;2022-07-23T00:50:27;2.87;;;1.33;;
17361;SDS011;8798;51.938;4.348;2022-07-23T00:52:55;2.50;;;1.40;;
17361;SDS011;8798;51.938;4.348;2022-07-23T00:55:23;4.13;;;1.23;;
17361;SDS011;8798;51.938;4.348;2022-07-23T00:57:51;1.87;;;1.37;;
17361;SDS011;8798;51.938;4.348;2022-07-23T01:00:21;4.37;;;1.20;;
17361;SDS011;8798;51.938;4.348;2022-07-23T01:02:49;3.80;;;1.37;;
17361;SDS011;8798;51.938;4.348;2022-07-23T01:05:18;3.63;;;1.40;;
17361;SDS011;8798;51.938;4.348;2022-07-23T01:07:48;3.37;;;1.33;;
17361;SDS011;8798;51.938;4.348;2022-07-23T01:10:21;6.93;;;1.60;;
17361;SDS011;8798;51.938;4.348;2022-07-23T01:12:58;3.70;;;1.40;;
17361;SDS011;8798;51.938;4.348;2022-07-23T01:15:26;1.90;;;1.33;;
17361;SDS011;8798;51.938;4.348;2022-07-23T01:21:37;4.90;;;1.70;;
17361;SDS011;8798;51.938;4.348;2022-07-23T01:24:08;4.43;;;1.57;;
17361;SDS011;8798;51.938;4.348;2022-07-23T01:26:37;3.60;;;1.50;;
17361;SDS011;8798;51.938;4.348;2022-07-23T01:29:05;4.27;;;1.53;;
17361;SDS011;8798;51.938;4.348;2022-07-23T01:31:33;3.30;;;1.87;;
17361;SDS011;8798;51.938;4.348;2022-07-23T01:34:01;1.50;;;1.27;;
17361;SDS011;8798;51.938;4.348;2022-07-23T01:36:29;6.13;;;1.73;;
17361;SDS011;8798;51.938;4.348;2022-07-23T01:38:56;2.17;;;1.50;;
17361;SDS011;8798;51.938;4.348;2022-07-23T01:41:26;4.80;;;1.70;;
17361;SDS011;8798;51.938;4.348;2022-07-23T01:43:54;3.50;;;1.70;;
17361;SDS011;8798;51.938;4.348;2022-07-23T01:46:22;3.97;;;1.53;;
17361;SDS011;8798;51.938;4.348;2022-07-23T01:48:50;1.80;;;1.50;;
17361;SDS011;8798;51.938;4.348;2022-07-23T01:51:18;2.03;;;1.57;;
17361;SDS011;8798;51.938;4.348;2022-07-23T01:53:46;2.40;;;1.60;;
17361;SDS011;8798;51.938;4.348;2022-07-23T01:56:13;3.90;;;2.00;;
17361;SDS011;8798;51.938;4.348;2022-07-23T01:58:42;4.63;;;1.90;;
17361;SDS011;8798;51.938;4.348;2022-07-23T02:01:10;2.30;;;1.50;;
17361;SDS011;8798;51.938;4.348;2022-07-23T02:03:38;3.43;;;1.90;;
17361;SDS011;8798;51.938;4.348;2022-07-23T02:06:06;5.43;;;2.30;;
17361;SDS011;8798;51.938;4.348;2022-07-23T02:08:34;5.10;;;1.80;;
17361;SDS011;8798;51.938;4.348;2022-07-23T02:11:02;2.87;;;1.87;;
17361;SDS011;8798;51.938;4.348;2022-07-23T02:13:29;3.63;;;2.10;;
17361;SDS011;8798;51.938;4.348;2022-07-23T02:16:01;3.97;;;1.70;;
17361;SDS011;8798;51.938;4.348;2022-07-23T02:18:28;4.50;;;2.17;;
17361;SDS011;8798;51.938;4.348;2022-07-23T02:20:56;2.53;;;1.90;;
17361;SDS011;8798;51.938;4.348;2022-07-23T02:23:24;2.53;;;1.90;;
17361;SDS011;8798;51.938;4.348;2022-07-23T02:25:52;4.20;;;2.30;;
17361;SDS011;8798;51.938;4.348;2022-07-23T02:28:19;2.40;;;1.77;;
17361;SDS011;8798;51.938;4.348;2022-07-23T02:30:47;3.50;;;2.10;;
17361;SDS011;8798;51.938;4.348;2022-07-23T02:33:16;3.80;;;2.00;;
17361;SDS011;8798;51.938;4.348;2022-07-23T02:35:44;3.67;;;1.97;;
17361;SDS011;8798;51.938;4.348;2022-07-23T02:38:12;6.03;;;2.03;;
17361;SDS011;8798;51.938;4.348;2022-07-23T02:40:39;2.93;;;2.10;;
17361;SDS011;8798;51.938;4.348;2022-07-23T02:43:07;3.07;;;1.90;;
17361;SDS011;8798;51.938;4.348;2022-07-23T02:45:35;3.30;;;2.10;;
17361;SDS011;8798;51.938;4.348;2022-07-23T02:48:03;4.50;;;2.20;;
17361;SDS011;8798;51.938;4.348;2022-07-23T02:50:32;2.13;;;1.83;;
17361;SDS011;8798;51.938;4.348;2022-07-23T02:53:00;4.43;;;2.13;;
17361;SDS011;8798;51.938;4.348;2022-07-23T02:55:28;5.77;;;2.00;;
17361;SDS011;8798;51.938;4.348;2022-07-23T02:57:57;2.57;;;1.90;;
17361;SDS011;8798;51.938;4.348;2022-07-23T03:00:25;4.27;;;2.13;;
17361;SDS011;8798;51.938;4.348;2022-07-23T03:02:52;4.37;;;1.87;;
17361;SDS011;8798;51.938;4.348;2022-07-23T03:05:20;3.97;;;1.80;;
17361;SDS011;8798;51.938;4.348;2022-07-23T03:07:49;4.63;;;1.97;;
17361;SDS011;8798;51.938;4.348;2022-07-23T03:10:17;2.67;;;2.03;;
17361;SDS011;8798;51.938;4.348;2022-07-23T03:12:45;4.27;;;1.90;;
17361;SDS011;8798;51.938;4.348;2022-07-23T03:15:13;4.97;;;1.90;;
17361;SDS011;8798;51.938;4.348;2022-07-23T03:17:41;5.63;;;2.60;;
17361;SDS011;8798;51.938;4.348;2022-07-23T03:20:09;3.73;;;1.77;;
17361;SDS011;8798;51.938;4.348;2022-07-23T03:22:37;5.10;;;2.03;;
17361;SDS011;8798;51.938;4.348;2022-07-23T03:25:07;3.93;;;2.00;;
17361;SDS011;8798;51.938;4.348;2022-07-23T03:27:36;2.43;;;2.03;;
17361;SDS011;8798;51.938;4.348;2022-07-23T03:30:04;5.67;;;2.30;;
17361;SDS011;8798;51.938;4.348;2022-07-23T03:32:33;4.53;;;1.80;;
17361;SDS011;8798;51.938;4.348;2022-07-23T03:35:00;2.67;;;1.73;;
17361;SDS011;8798;51.938;4.348;2022-07-23T03:37:28;2.37;;;1.70;;
17361;SDS011;8798;51.938;4.348;2022-07-23T03:39:56;2.77;;;1.80;;
17361;SDS011;8798;51.938;4.348;2022-07-23T03:42:25;3.83;;;2.20;;
17361;SDS011;8798;51.938;4.348;2022-07-23T03:44:54;5.17;;;2.40;;
17361;SDS011;8798;51.938;4.348;2022-07-23T03:47:28;2.43;;;2.20;;
17361;SDS011;8798;51.938;4.348;2022-07-23T03:49:55;2.27;;;2.00;;
17361;SDS011;8798;51.938;4.348;2022-07-23T03:52:23;2.70;;;2.00;;
17361;SDS011;8798;51.938;4.348;2022-07-23T03:54:51;5.07;;;2.20;;
17361;SDS011;8798;51.938;4.348;2022-07-23T03:57:19;2.10;;;1.90;;
17361;SDS011;8798;51.938;4.348;2022-07-23T03:59:48;3.77;;;2.33;;
17361;SDS011;8798;51.938;4.348;2022-07-23T04:02:15;6.40;;;2.53;;
17361;SDS011;8798;51.938;4.348;2022-07-23T04:04:43;3.03;;;2.40;;
17361;SDS011;8798;51.938;4.348;2022-07-23T04:07:11;3.53;;;2.20;;
17361;SDS011;8798;51.938;4.348;2022-07-23T04:09:39;7.97;;;2.60;;
17361;SDS011;8798;51.938;4.348;2022-07-23T04:12:11;6.17;;;2.60;;
17361;SDS011;8798;51.938;4.348;2022-07-23T04:14:39;6.37;;;2.30;;
17361;SDS011;8798;51.938;4.348;2022-07-23T04:17:08;3.57;;;2.27;;
17361;SDS011;8798;51.938;4.348;2022-07-23T04:19:36;4.13;;;2.57;;
17361;SDS011;8798;51.938;4.348;2022-07-23T04:22:07;5.70;;;2.43;;
17361;SDS011;8798;51.938;4.348;2022-07-23T04:24:34;3.93;;;2.30;;
17361;SDS011;8798;51.938;4.348;2022-07-23T04:27:02;6.07;;;3.10;;
17361;SDS011;8798;51.938;4.348;2022-07-23T04:29:31;4.10;;;2.37;;
17361;SDS011;8798;51.938;4.348;2022-07-23T04:31:58;6.77;;;3.00;;
17361;SDS011;8798;51.938;4.348;2022-07-23T04:34:28;3.70;;;2.87;;
17361;SDS011;8798;51.938;4.348;2022-07-23T04:37:01;5.67;;;2.50;;
17361;SDS011;8798;51.938;4.348;2022-07-23T04:39:29;5.47;;;2.70;;
17361;SDS011;8798;51.938;4.348;2022-07-23T04:41:57;3.63;;;2.40;;
17361;SDS011;8798;51.938;4.348;2022-07-23T04:44:24;4.60;;;2.40;;
17361;SDS011;8798;51.938;4.348;2022-07-23T04:46:52;4.63;;;2.90;;
17361;SDS011;8798;51.938;4.348;2022-07-23T04:49:21;6.27;;;2.60;;
17361;SDS011;8798;51.938;4.348;2022-07-23T04:51:50;4.73;;;2.70;;
17361;SDS011;8798;51.938;4.348;2022-07-23T04:54:18;3.90;;;2.27;;
17361;SDS011;8798;51.938;4.348;2022-07-23T04:56:45;5.57;;;2.63;;
17361;SDS011;8798;51.938;4.348;2022-07-23T04:59:13;4.70;;;2.80;;
17361;SDS011;8798;51.938;4.348;2022-07-23T05:01:41;4.27;;;2.63;;
17361;SDS011;8798;51.938;4.348;2022-07-23T05:04:09;6.53;;;2.70;;
17361;SDS011;8798;51.938;4.348;2022-07-23T05:06:37;3.63;;;2.93;;
17361;SDS011;8798;51.938;4.348;2022-07-23T05:09:07;4.13;;;2.60;;
17361;SDS011;8798;51.938;4.348;2022-07-23T05:11:34;4.00;;;2.50;;
17361;SDS011;8798;51.938;4.348;2022-07-23T05:14:02;6.90;;;3.10;;
17361;SDS011;8798;51.938;4.348;2022-07-23T05:16:30;3.63;;;2.57;;
17361;SDS011;8798;51.938;4.348;2022-07-23T05:18:58;3.80;;;2.70;;
17361;SDS011;8798;51.938;4.348;2022-07-23T05:21:26;3.10;;;2.60;;
17361;SDS011;8798;51.938;4.348;2022-07-23T05:23:54;5.97;;;2.90;;
17361;SDS011;8798;51.938;4.348;2022-07-23T05:26:23;5.00;;;2.47;;
17361;SDS011;8798;51.938;4.348;2022-07-23T05:28:51;5.03;;;2.97;;
17361;SDS011;8798;51.938;4.348;2022-07-23T05:31:19;5.10;;;2.80;;
17361;SDS011;8798;51.938;4.348;2022-07-23T05:33:47;5.33;;;2.90;;
17361;SDS011;8798;51.938;4.348;2022-07-23T05:36:15;5.47;;;3.10;;
17361;SDS011;8798;51.938;4.348;2022-07-23T05:38:42;5.23;;;2.90;;
17361;SDS011;8798;51.938;4.348;2022-07-23T05:41:10;3.00;;;2.50;;
17361;SDS011;8798;51.938;4.348;2022-07-23T05:43:40;3.07;;;2.40;;
17361;SDS011;8798;51.938;4.348;2022-07-23T05:46:07;6.83;;;2.60;;
17361;SDS011;8798;51.938;4.348;2022-07-23T05:48:35;4.07;;;2.50;;
17361;SDS011;8798;51.938;4.348;2022-07-23T05:51:03;5.50;;;2.53;;
17361;SDS011;8798;51.938;4.348;2022-07-23T05:53:33;3.83;;;2.00;;
17361;SDS011;8798;51.938;4.348;2022-07-23T05:56:01;3.50;;;2.70;;
17361;SDS011;8798;51.938;4.348;2022-07-23T05:58:29;5.20;;;2.00;;
17361;SDS011;8798;51.938;4.348;2022-07-23T06:00:58;4.87;;;2.03;;
17361;SDS011;8798;51.938;4.348;2022-07-23T06:03:26;3.53;;;2.10;;
17361;SDS011;8798;51.938;4.348;2022-07-23T06:05:54;4.27;;;2.00;;
17361;SDS011;8798;51.938;4.348;2022-07-23T06:08:22;4.23;;;2.30;;
17361;SDS011;8798;51.938;4.348;2022-07-23T06:10:50;8.20;;;2.17;;
17361;SDS011;8798;51.938;4.348;2022-07-23T06:13:17;3.53;;;2.00;;
17361;SDS011;8798;51.938;4.348;2022-07-23T06:15:45;4.97;;;2.33;;
17361;SDS011;8798;51.938;4.348;2022-07-23T06:18:15;3.30;;;2.00;;
17361;SDS011;8798;51.938;4.348;2022-07-23T06:20:43;3.07;;;1.73;;
17361;SDS011;8798;51.938;4.348;2022-07-23T06:23:15;3.53;;;1.57;;
17361;SDS011;8798;51.938;4.348;2022-07-23T06:25:43;2.67;;;1.60;;
17361;SDS011;8798;51.938;4.348;2022-07-23T06:28:11;2.00;;;1.30;;
17361;SDS011;8798;51.938;4.348;2022-07-23T06:30:39;5.03;;;1.67;;
17361;SDS011;8798;51.938;4.348;2022-07-23T06:33:07;2.53;;;1.33;;
17361;SDS011;8798;51.938;4.348;2022-07-23T06:35:36;2.87;;;1.30;;
17361;SDS011;8798;51.938;4.348;2022-07-23T06:38:04;3.30;;;1.40;;
17361;SDS011;8798;51.938;4.348;2022-07-23T06:40:33;1.33;;;1.20;;
17361;SDS011;8798;51.938;4.348;2022-07-23T06:43:01;3.40;;;1.10;;
17361;SDS011;8798;51.938;4.348;2022-07-23T06:45:29;2.80;;;1.13;;
17361;SDS011;8798;51.938;4.348;2022-07-23T06:47:57;4.60;;;1.40;;
17361;SDS011;8798;51.938;4.348;2022-07-23T06:50:25;1.73;;;1.10;;
17361;SDS011;8798;51.938;4.348;2022-07-23T06:52:54;4.67;;;1.30;;
17361;SDS011;8798;51.938;4.348;2022-07-23T06:55:22;3.53;;;1.20;;
17361;SDS011;8798;51.938;4.348;2022-07-23T06:57:50;2.13;;;1.10;;
17361;SDS011;8798;51.938;4.348;2022-07-23T07:00:18;4.07;;;1.50;;
17361;SDS011;8798;51.938;4.348;2022-07-23T07:02:45;4.37;;;1.53;;
17361;SDS011;8798;51.938;4.348;2022-07-23T07:05:13;1.67;;;1.20;;
17361;SDS011;8798;51.938;4.348;2022-07-23T07:07:41;2.97;;;1.37;;
17361;SDS011;8798;51.938;4.348;2022-07-23T07:10:10;3.70;;;1.20;;
17361;SDS011;8798;51.938;4.348;2022-07-23T07:12:41;2.10;;;1.23;;
17361;SDS011;8798;51.938;4.348;2022-07-23T07:15:09;1.63;;;1.13;;
17361;SDS011;8798;51.938;4.348;2022-07-23T07:17:37;1.50;;;1.00;;
17361;SDS011;8798;51.938;4.348;2022-07-23T07:20:06;7.17;;;1.57;;
17361;SDS011;8798;51.938;4.348;2022-07-23T07:22:34;2.97;;;1.10;;
17361;SDS011;8798;51.938;4.348;2022-07-23T07:25:02;2.80;;;1.20;;
17361;SDS011;8798;51.938;4.348;2022-07-23T07:27:31;1.30;;;1.10;;
17361;SDS011;8798;51.938;4.348;2022-07-23T07:29:59;2.57;;;1.27;;
17361;SDS011;8798;51.938;4.348;2022-07-23T07:32:27;2.97;;;1.50;;
17361;SDS011;8798;51.938;4.348;2022-07-23T07:35:14;5.03;;;1.20;;
17361;SDS011;8798;51.938;4.348;2022-07-23T07:37:42;2.50;;;1.07;;
17361;SDS011;8798;51.938;4.348;2022-07-23T07:40:10;2.60;;;1.23;;
17361;SDS011;8798;51.938;4.348;2022-07-23T07:42:45;2.10;;;1.07;;
17361;SDS011;8798;51.938;4.348;2022-07-23T07:45:13;5.60;;;1.47;;
17361;SDS011;8798;51.938;4.348;2022-07-23T07:47:41;2.33;;;1.00;;
17361;SDS011;8798;51.938;4.348;2022-07-23T07:50:09;1.60;;;1.00;;
17361;SDS011;8798;51.938;4.348;2022-07-23T07:52:37;4.50;;;1.20;;
17361;SDS011;8798;51.938;4.348;2022-07-23T07:55:06;2.27;;;1.07;;
17361;SDS011;8798;51.938;4.348;2022-07-23T07:57:35;3.80;;;1.30;;
17361;SDS011;8798;51.938;4.348;2022-07-23T08:00:06;3.27;;;0.97;;
17361;SDS011;8798;51.938;4.348;2022-07-23T08:02:43;2.20;;;1.03;;
17361;SDS011;8798;51.938;4.348;2022-07-23T08:05:12;2.23;;;1.03;;
17361;SDS011;8798;51.938;4.348;2022-07-23T08:07:40;1.67;;;1.00;;
17361;SDS011;8798;51.938;4.348;2022-07-23T08:10:08;3.70;;;1.10;;
17361;SDS011;8798;51.938;4.348;2022-07-23T08:12:37;2.37;;;1.00;;
17361;SDS011;8798;51.938;4.348;2022-07-23T08:15:08;1.80;;;0.80;;
17361;SDS011;8798;51.938;4.348;2022-07-23T08:17:39;3.20;;;1.10;;
17361;SDS011;8798;51.938;4.348;2022-07-23T08:20:08;1.57;;;1.30;;
17361;SDS011;8798;51.938;4.348;2022-07-23T08:22:41;2.10;;;1.00;;
17361;SDS011;8798;51.938;4.348;2022-07-23T08:25:14;2.90;;;1.30;;
17361;SDS011;8798;51.938;4.348;2022-07-23T08:27:42;2.60;;;0.90;;
17361;SDS011;8798;51.938;4.348;2022-07-23T08:30:11;1.40;;;1.10;;
17361;SDS011;8798;51.938;4.348;2022-07-23T08:32:53;2.13;;;1.10;;
17361;SDS011;8798;51.938;4.348;2022-07-23T08:35:23;1.97;;;1.10;;
17361;SDS011;8798;51.938;4.348;2022-07-23T08:37:52;1.77;;;1.00;;
17361;SDS011;8798;51.938;4.348;2022-07-23T08:40:19;2.30;;;1.10;;
17361;SDS011;8798;51.938;4.348;2022-07-23T08:42:48;1.70;;;0.97;;
17361;SDS011;8798;51.938;4.348;2022-07-23T08:45:19;4.77;;;1.20;;
17361;SDS011;8798;51.938;4.348;2022-07-23T08:47:49;3.07;;;1.07;;
17361;SDS011;8798;51.938;4.348;2022-07-23T08:50:19;4.77;;;1.50;;
17361;SDS011;8798;51.938;4.348;2022-07-23T08:52:47;4.03;;;1.23;;
17361;SDS011;8798;51.938;4.348;2022-07-23T08:55:16;3.50;;;1.10;;
17361;SDS011;8798;51.938;4.348;2022-07-23T08:57:45;3.60;;;1.47;;
17361;SDS011;8798;51.938;4.348;2022-07-23T09:00:16;3.37;;;1.40;;
17361;SDS011;8798;51.938;4.348;2022-07-23T09:02:46;1.53;;;1.00;;
17361;SDS011;8798;51.938;4.348;2022-07-23T09:05:15;2.47;;;1.20;;
17361;SDS011;8798;51.938;4.348;2022-07-23T09:10:42;3.77;;;1.10;;
17361;SDS011;8798;51.938;4.348;2022-07-23T09:16:09;2.60;;;1.33;;
17361;SDS011;8798;51.938;4.348;2022-07-23T09:18:42;2.77;;;1.63;;
17361;SDS011;8798;51.938;4.348;2022-07-23T09:21:19;4.50;;;1.37;;
17361;SDS011;8798;51.938;4.348;2022-07-23T09:23:54;2.93;;;1.30;;
17361;SDS011;8798;51.938;4.348;2022-07-23T09:26:25;3.17;;;1.20;;
17361;SDS011;8798;51.938;4.348;2022-07-23T09:29:08;3.13;;;1.30;;
17361;SDS011;8798;51.938;4.348;2022-07-23T09:31:47;2.53;;;1.10;;
17361;SDS011;8798;51.938;4.348;2022-07-23T09:34:20;9.27;;;1.60;;
17361;SDS011;8798;51.938;4.348;2022-07-23T09:36:50;4.47;;;1.67;;
17361;SDS011;8798;51.938;4.348;2022-07-23T09:39:23;11.20;;;2.10;;
17361;SDS011;8798;51.938;4.348;2022-07-23T09:41:54;5.50;;;1.90;;
17361;SDS011;8798;51.938;4.348;2022-07-23T09:44:22;3.73;;;1.20;;
17361;SDS011;8798;51.938;4.348;2022-07-23T09:46:57;2.20;;;1.10;;
17361;SDS011;8798;51.938;4.348;2022-07-23T09:49:27;3.00;;;1.43;;
17361;SDS011;8798;51.938;4.348;2022-07-23T09:51:57;2.03;;;1.40;;
17361;SDS011;8798;51.938;4.348;2022-07-23T09:54:28;4.37;;;1.30;;
17361;SDS011;8798;51.938;4.348;2022-07-23T09:56:59;4.23;;;1.57;;
17361;SDS011;8798;51.938;4.348;2022-07-23T09:59:29;1.80;;;1.40;;
17361;SDS011;8798;51.938;4.348;2022-07-23T10:01:59;2.63;;;1.60;;
17361;SDS011;8798;51.938;4.348;2022-07-23T10:04:29;2.53;;;1.47;;
17361;SDS011;8798;51.938;4.348;2022-07-23T10:06:58;2.33;;;1.40;;
17361;SDS011;8798;51.938;4.348;2022-07-23T10:09:29;3.07;;;1.20;;
17361;SDS011;8798;51.938;4.348;2022-07-23T10:12:00;2.10;;;1.60;;
17361;SDS011;8798;51.938;4.348;2022-07-23T10:14:59;5.30;;;1.70;;
17361;SDS011;8798;51.938;4.348;2022-07-23T10:17:28;4.40;;;1.57;;
17361;SDS011;8798;51.938;4.348;2022-07-23T10:19:58;4.47;;;1.57;;
17361;SDS011;8798;51.938;4.348;2022-07-23T10:22:26;2.37;;;1.57;;
17361;SDS011;8798;51.938;4.348;2022-07-23T10:24:58;3.40;;;1.90;;
17361;SDS011;8798;51.938;4.348;2022-07-23T10:27:42;3.27;;;1.60;;
17361;SDS011;8798;51.938;4.348;2022-07-23T10:30:18;2.53;;;1.67;;
17361;SDS011;8798;51.938;4.348;2022-07-23T10:32:52;3.57;;;1.87;;
17361;SDS011;8798;51.938;4.348;2022-07-23T10:35:33;4.00;;;1.60;;
17361;SDS011;8798;51.938;4.348;2022-07-23T10:38:07;4.67;;;1.83;;
17361;SDS011;8798;51.938;4.348;2022-07-23T10:40:51;4.93;;;1.60;;
17361;SDS011;8798;51.938;4.348;2022-07-23T10:43:21;3.53;;;1.90;;
17361;SDS011;8798;51.938;4.348;2022-07-23T10:45:49;15.57;;;1.60;;
17361;SDS011;8798;51.938;4.348;2022-07-23T10:48:17;4.83;;;1.83;;
17361;SDS011;8798;51.938;4.348;2022-07-23T10:51:07;3.40;;;1.77;;
17361;SDS011;8798;51.938;4.348;2022-07-23T10:53:53;4.37;;;1.70;;
17361;SDS011;8798;51.938;4.348;2022-07-23T10:59:16;3.40;;;1.77;;
17361;SDS011;8798;51.938;4.348;2022-07-23T11:01:45;2.77;;;1.70;;
17361;SDS011;8798;51.938;4.348;2022-07-23T11:04:14;3.03;;;1.90;;
17361;SDS011;8798;51.938;4.348;2022-07-23T11:09:39;4.63;;;1.83;;
17361;SDS011;8798;51.938;4.348;2022-07-23T11:14:59;4.00;;;1.97;;
17361;SDS011;8798;51.938;4.348;2022-07-23T11:17:28;5.60;;;1.93;;
17361;SDS011;8798;51.938;4.348;2022-07-23T11:20:12;7.00;;;1.97;;
17361;SDS011;8798;51.938;4.348;2022-07-23T11:22:49;4.40;;;1.97;;
17361;SDS011;8798;51.938;4.348;2022-07-23T11:25:34;3.87;;;1.70;;
17361;SDS011;8798;51.938;4.348;2022-07-23T11:30:53;3.03;;;2.20;;
17361;SDS011;8798;51.938;4.348;2022-07-23T11:33:23;3.97;;;2.40;;
17361;SDS011;8798;51.938;4.348;2022-07-23T11:36:02;5.97;;;2.33;;
17361;SDS011;8798;51.938;4.348;2022-07-23T11:38:31;5.37;;;2.40;;
17361;SDS011;8798;51.938;4.348;2022-07-23T11:41:00;3.97;;;2.10;;
17361;SDS011;8798;51.938;4.348;2022-07-23T11:43:28;3.53;;;2.40;;
17361;SDS011;8798;51.938;4.348;2022-07-23T11:45:57;3.90;;;2.33;;
17361;SDS011;8798;51.938;4.348;2022-07-23T11:48:26;2.45;;;1.80;;
17361;SDS011;8798;51.938;4.348;2022-07-23T11:50:56;4.95;;;2.58;;
17361;SDS011;8798;51.938;4.348;2022-07-23T11:53:25;2.60;;;2.40;;
17361;SDS011;8798;51.938;4.348;2022-07-23T11:56:03;4.13;;;2.17;;
17361;SDS011;8798;51.938;4.348;2022-07-23T11:58:32;3.03;;;2.17;;
17361;SDS011;8798;51.938;4.348;2022-07-23T12:01:00;3.42;;;2.17;;
17361;SDS011;8798;51.938;4.348;2022-07-23T12:03:29;6.93;;;2.60;;
17361;SDS011;8798;51.938;4.348;2022-07-23T12:05:57;5.40;;;2.97;;
17361;SDS011;8798;51.938;4.348;2022-07-23T12:08:26;5.05;;;2.28;;
17361;SDS011;8798;51.938;4.348;2022-07-23T12:10:54;5.28;;;2.30;;
17361;SDS011;8798;51.938;4.348;2022-07-23T12:13:23;7.88;;;2.90;;
17361;SDS011;8798;51.938;4.348;2022-07-23T12:15:51;5.65;;;2.72;;
17361;SDS011;8798;51.938;4.348;2022-07-23T12:18:22;3.97;;;2.33;;
17361;SDS011;8798;51.938;4.348;2022-07-23T12:20:52;2.92;;;2.30;;
17361;SDS011;8798;51.938;4.348;2022-07-23T12:23:23;6.03;;;2.28;;
17361;SDS011;8798;51.938;4.348;2022-07-23T12:25:53;5.07;;;2.67;;
17361;SDS011;8798;51.938;4.348;2022-07-23T12:28:27;4.90;;;2.40;;
17361;SDS011;8798;51.938;4.348;2022-07-23T12:30:57;4.75;;;2.63;;
17361;SDS011;8798;51.938;4.348;2022-07-23T12:33:27;6.10;;;2.92;;
17361;SDS011;8798;51.938;4.348;2022-07-23T12:35:58;5.00;;;2.17;;
17361;SDS011;8798;51.938;4.348;2022-07-23T12:38:35;5.53;;;2.35;;
17361;SDS011;8798;51.938;4.348;2022-07-23T12:41:04;3.67;;;2.28;;
17361;SDS011;8798;51.938;4.348;2022-07-23T12:43:36;3.70;;;2.13;;
17361;SDS011;8798;51.938;4.348;2022-07-23T12:46:05;3.95;;;1.85;;
17361;SDS011;8798;51.938;4.348;2022-07-23T12:48:35;3.35;;;1.95;;
17361;SDS011;8798;51.938;4.348;2022-07-23T12:51:05;6.95;;;2.03;;
17361;SDS011;8798;51.938;4.348;2022-07-23T12:53:36;3.88;;;2.30;;
17361;SDS011;8798;51.938;4.348;2022-07-23T12:56:06;3.35;;;2.33;;
17361;SDS011;8798;51.938;4.348;2022-07-23T12:58:42;3.72;;;1.98;;
17361;SDS011;8798;51.938;4.348;2022-07-23T13:01:23;3.70;;;2.22;;
17361;SDS011;8798;51.938;4.348;2022-07-23T13:03:58;6.30;;;2.67;;
17361;SDS011;8798;51.938;4.348;2022-07-23T13:06:28;3.50;;;2.13;;
17361;SDS011;8798;51.938;4.348;2022-07-23T13:08:57;3.92;;;2.35;;
17361;SDS011;8798;51.938;4.348;2022-07-23T13:11:27;3.25;;;1.88;;
17361;SDS011;8798;51.938;4.348;2022-07-23T13:13:57;2.35;;;1.80;;
17361;SDS011;8798;51.938;4.348;2022-07-23T13:16:26;3.05;;;1.80;;
17361;SDS011;8798;51.938;4.348;2022-07-23T13:18:55;5.72;;;2.08;;
17361;SDS011;8798;51.938;4.348;2022-07-23T13:21:25;5.55;;;1.92;;
17361;SDS011;8798;51.938;4.348;2022-07-23T13:23:54;2.22;;;1.83;;
17361;SDS011;8798;51.938;4.348;2022-07-23T13:26:22;4.18;;;2.22;;
17361;SDS011;8798;51.938;4.348;2022-07-23T13:28:50;4.13;;;2.10;;
17361;SDS011;8798;51.938;4.348;2022-07-23T13:31:19;4.10;;;2.20;;
17361;SDS011;8798;51.938;4.348;2022-07-23T13:33:47;6.22;;;2.63;;
17361;SDS011;8798;51.938;4.348;2022-07-23T13:36:15;3.58;;;2.42;;
17361;SDS011;8798;51.938;4.348;2022-07-23T13:38:43;5.97;;;2.30;;
17361;SDS011;8798;51.938;4.348;2022-07-23T13:41:11;2.50;;;1.70;;
17361;SDS011;8798;51.938;4.348;2022-07-23T13:43:39;2.03;;;1.73;;
17361;SDS011;8798;51.938;4.348;2022-07-23T13:46:08;4.25;;;1.92;;
17361;SDS011;8798;51.938;4.348;2022-07-23T13:48:38;2.90;;;2.20;;
17361;SDS011;8798;51.938;4.348;2022-07-23T13:51:07;4.38;;;1.80;;
17361;SDS011;8798;51.938;4.348;2022-07-23T13:53:36;4.15;;;2.08;;
17361;SDS011;8798;51.938;4.348;2022-07-23T13:56:06;4.72;;;2.78;;
17361;SDS011;8798;51.938;4.348;2022-07-23T13:58:34;4.90;;;2.28;;
17361;SDS011;8798;51.938;4.348;2022-07-23T14:01:02;4.15;;;2.30;;
17361;SDS011;8798;51.938;4.348;2022-07-23T14:03:30;2.65;;;1.90;;
17361;SDS011;8798;51.938;4.348;2022-07-23T14:06:00;3.75;;;2.20;;
17361;SDS011;8798;51.938;4.348;2022-07-23T14:08:28;4.30;;;2.63;;
17361;SDS011;8798;51.938;4.348;2022-07-23T14:10:57;5.97;;;2.42;;
17361;SDS011;8798;51.938;4.348;2022-07-23T14:13:26;3.22;;;2.60;;
17361;SDS011;8798;51.938;4.348;2022-07-23T14:15:55;6.35;;;2.40;;
17361;SDS011;8798;51.938;4.348;2022-07-23T14:18:23;3.80;;;2.22;;
17361;SDS011;8798;51.938;4.348;2022-07-23T14:20:58;6.22;;;2.70;;
17361;SDS011;8798;51.938;4.348;2022-07-23T14:23:28;4.22;;;2.50;;
17361;SDS011;8798;51.938;4.348;2022-07-23T14:25:56;3.20;;;1.70;;
17361;SDS011;8798;51.938;4.348;2022-07-23T14:28:24;4.40;;;2.20;;
17361;SDS011;8798;51.938;4.348;2022-07-23T14:30:52;3.55;;;2.10;;
17361;SDS011;8798;51.938;4.348;2022-07-23T14:33:20;7.68;;;2.35;;
17361;SDS011;8798;51.938;4.348;2022-07-23T14:35:51;3.08;;;2.63;;
17361;SDS011;8798;51.938;4.348;2022-07-23T14:38:19;2.90;;;2.30;;
17361;SDS011;8798;51.938;4.348;2022-07-23T14:40:49;4.90;;;2.25;;
17361;SDS011;8798;51.938;4.348;2022-07-23T14:43:16;5.97;;;2.60;;
17361;SDS011;8798;51.938;4.348;2022-07-23T14:45:44;4.45;;;2.55;;
17361;SDS011;8798;51.938;4.348;2022-07-23T14:48:14;5.93;;;3.10;;
17361;SDS011;8798;51.938;4.348;2022-07-23T14:50:43;3.45;;;2.70;;
17361;SDS011;8798;51.938;4.348;2022-07-23T14:53:11;8.15;;;3.10;;
17361;SDS011;8798;51.938;4.348;2022-07-23T14:55:39;5.95;;;3.63;;
17361;SDS011;8798;51.938;4.348;2022-07-23T14:58:08;7.75;;;3.53;;
17361;SDS011;8798;51.938;4.348;2022-07-23T15:00:36;4.18;;;2.85;;
17361;SDS011;8798;51.938;4.348;2022-07-23T15:03:04;4.82;;;2.80;;
17361;SDS011;8798;51.938;4.348;2022-07-23T15:05:31;4.05;;;2.47;;
17361;SDS011;8798;51.938;4.348;2022-07-23T15:08:00;5.32;;;2.67;;
17361;SDS011;8798;51.938;4.348;2022-07-23T15:10:27;3.15;;;2.30;;
17361;SDS011;8798;51.938;4.348;2022-07-23T15:12:56;3.38;;;2.17;;
17361;SDS011;8798;51.938;4.348;2022-07-23T15:15:25;4.78;;;2.58;;
17361;SDS011;8798;51.938;4.348;2022-07-23T15:17:53;4.13;;;2.20;;
17361;SDS011;8798;51.938;4.348;2022-07-23T15:20:21;4.72;;;2.95;;
17361;SDS011;8798;51.938;4.348;2022-07-23T15:23:03;4.60;;;2.45;;
17361;SDS011;8798;51.938;4.348;2022-07-23T15:25:33;4.10;;;2.83;;
17361;SDS011;8798;51.938;4.348;2022-07-23T15:28:03;5.85;;;2.30;;
17361;SDS011;8798;51.938;4.348;2022-07-23T15:30:35;4.18;;;2.40;;
17361;SDS011;8798;51.938;4.348;2022-07-23T15:33:04;3.95;;;2.13;;
17361;SDS011;8798;51.938;4.348;2022-07-23T15:35:35;8.40;;;2.40;;